createdAt,value
2019-05-03T00:00:42.543Z,1001.10
2019-05-03T00:01:42.017Z,1001.09
2019-05-03T00:02:41.691Z,1001.13
2019-05-03T00:03:42.483Z,1001.18
2019-05-03T00:04:42.233Z,1001.15
2019-05-03T00:05:41.788Z,1001.18
2019-05-03T00:06:42.596Z,1001.16
2019-05-03T00:07:42.082Z,1001.15
2019-05-03T00:08:41.512Z,1001.20
2019-05-03T00:09:42.514Z,1001.22
2019-05-03T00:10:42.357Z,1001.17
2019-05-03T00:11:42.208Z,1001.17
2019-05-03T00:12:42.177Z,1001.20
2019-05-03T00:13:41.907Z,1001.20
2019-05-03T00:14:41.690Z,1001.15
2019-05-03T00:15:40.468Z,1001.18
2019-05-03T00:16:41.646Z,1001.19
2019-05-03T00:17:41.976Z,1001.21
2019-05-03T00:18:42.204Z,1001.17
2019-05-03T00:19:42.173Z,1001.15
2019-05-03T00:20:42.051Z,1001.22
2019-05-03T00:21:41.989Z,1001.20
2019-05-03T00:22:41.844Z,1001.17
2019-05-03T00:23:41.810Z,1001.21
2019-05-03T00:24:42.426Z,1001.26
2019-05-03T00:25:41.861Z,1001.23
2019-05-03T00:26:42.213Z,1001.26
2019-05-03T00:27:40.332Z,1001.33
2019-05-03T00:28:40.322Z,1001.38
2019-05-03T00:29:41.827Z,1001.32
2019-05-03T00:30:42.277Z,1001.39
2019-05-03T00:31:42.211Z,1001.40
2019-05-03T00:32:40.277Z,1001.39
2019-05-03T00:33:42.168Z,1001.33
2019-05-03T00:34:41.801Z,1001.37
2019-05-03T00:35:40.242Z,1001.37
2019-05-03T00:36:41.892Z,1001.37
2019-05-03T00:37:41.962Z,1001.39
2019-05-03T00:38:41.892Z,1001.37
2019-05-03T00:39:41.855Z,1001.37
2019-05-03T00:40:41.709Z,1001.30
2019-05-03T00:41:40.175Z,1001.30
2019-05-03T00:42:40.174Z,1001.32
2019-05-03T00:43:42.245Z,1001.25
2019-05-03T00:44:42.121Z,1001.26
2019-05-03T00:45:42.139Z,1001.29
2019-05-03T00:46:42.109Z,1001.30
2019-05-03T00:47:42.026Z,1001.31
2019-05-03T00:48:40.102Z,1001.24
2019-05-03T00:49:40.085Z,1001.27
2019-05-03T00:50:40.074Z,1001.33
2019-05-03T00:51:40.061Z,1001.34
2019-05-03T00:52:40.052Z,1001.36
2019-05-03T00:53:40.042Z,1001.40
2019-05-03T00:54:40.060Z,1001.41
2019-05-03T00:55:41.873Z,1001.41
2019-05-03T00:56:43.961Z,1001.37
2019-05-03T00:57:41.575Z,1001.41
2019-05-03T00:58:39.983Z,1001.38
2019-05-03T00:59:41.920Z,1001.38
2019-05-03T01:00:41.709Z,1001.37
2019-05-03T01:01:39.950Z,1001.37
2019-05-03T01:02:39.937Z,1001.37
2019-05-03T01:03:41.783Z,1001.38
2019-05-03T01:04:39.917Z,1001.38
2019-05-03T01:05:39.907Z,1001.40
2019-05-03T01:06:39.921Z,1001.44
2019-05-03T01:07:39.882Z,1001.45
2019-05-03T01:08:41.832Z,1001.42
2019-05-03T01:09:39.860Z,1001.39
2019-05-03T01:10:39.848Z,1001.46
2019-05-03T01:11:41.725Z,1001.55
2019-05-03T01:12:41.602Z,1001.48
2019-05-03T01:13:39.815Z,1001.41
2019-05-03T01:14:39.802Z,1001.49
2019-05-03T01:15:39.792Z,1001.47
2019-05-03T01:16:39.779Z,1001.52
2019-05-03T01:17:41.898Z,1001.59
2019-05-03T01:18:41.294Z,1001.59
2019-05-03T01:19:39.746Z,1001.61
2019-05-03T01:20:39.735Z,1001.61
2019-05-03T01:21:39.723Z,1001.66
2019-05-03T01:22:39.711Z,1001.63
2019-05-03T01:23:41.837Z,1001.64
2019-05-03T01:24:39.697Z,1001.65
2019-05-03T01:25:39.678Z,1001.67
2019-05-03T01:26:39.667Z,1001.71
2019-05-03T01:27:39.658Z,1001.70
2019-05-03T01:28:39.645Z,1001.71
2019-05-03T01:29:39.632Z,1001.80
2019-05-03T01:30:39.654Z,1001.74
2019-05-03T01:31:39.610Z,1001.72
2019-05-03T01:32:39.599Z,1001.77
2019-05-03T01:33:39.587Z,1001.78
2019-05-03T01:34:41.526Z,1001.78
2019-05-03T01:35:39.564Z,1001.80
2019-05-03T01:36:39.574Z,1001.75
2019-05-03T01:37:39.543Z,1001.79
2019-05-03T01:38:39.532Z,1001.83
2019-05-03T01:39:39.521Z,1001.81
2019-05-03T01:40:39.513Z,1001.79
2019-05-03T01:41:39.497Z,1001.76
2019-05-03T01:42:39.520Z,1001.78
2019-05-03T01:43:39.474Z,1001.88
2019-05-03T01:44:39.467Z,1001.86
2019-05-03T01:45:39.452Z,1001.81
2019-05-03T01:46:39.446Z,1001.82
2019-05-03T01:47:39.432Z,1001.85
2019-05-03T01:48:41.505Z,1001.82
2019-05-03T01:49:39.407Z,1001.86
2019-05-03T01:50:39.396Z,1001.83
2019-05-03T01:51:39.385Z,1001.86
2019-05-03T01:52:39.374Z,1001.85
2019-05-03T01:53:39.363Z,1001.87
2019-05-03T01:54:39.357Z,1001.88
2019-05-03T01:55:44.502Z,1001.90
2019-05-03T01:56:43.296Z,1001.91
2019-05-03T01:57:41.871Z,1001.92
2019-05-03T01:58:39.309Z,1001.94
2019-05-03T01:59:39.294Z,1001.95
2019-05-03T02:00:39.289Z,1001.92
2019-05-03T02:01:39.272Z,1001.96
2019-05-03T02:02:39.264Z,1001.98
2019-05-03T02:03:39.249Z,1002.01
2019-05-03T02:04:39.237Z,1001.98
2019-05-03T02:05:39.226Z,1001.99
2019-05-03T02:06:39.248Z,1002.00
2019-05-03T02:07:39.205Z,1001.97
2019-05-03T02:08:39.194Z,1001.97
2019-05-03T02:09:39.181Z,1002.06
2019-05-03T02:10:39.170Z,1002.03
2019-05-03T02:11:39.158Z,1002.05
2019-05-03T02:12:39.177Z,1002.03
2019-05-03T02:13:39.136Z,1002.04
2019-05-03T02:14:39.125Z,1002.06
2019-05-03T02:15:39.113Z,1002.09
2019-05-03T02:16:39.103Z,1002.06
2019-05-03T02:17:39.093Z,1002.10
2019-05-03T02:18:39.088Z,1002.11
2019-05-03T02:19:39.069Z,1002.13
2019-05-03T02:20:39.057Z,1002.11
2019-05-03T02:21:39.046Z,1002.14
2019-05-03T02:22:39.035Z,1002.15
2019-05-03T02:23:39.024Z,1002.15
2019-05-03T02:24:39.020Z,1002.15
2019-05-03T02:25:39.003Z,1002.15
2019-05-03T02:26:38.989Z,1002.18
2019-05-03T02:27:38.977Z,1002.17
2019-05-03T02:28:38.972Z,1002.24
2019-05-03T02:29:38.955Z,1002.28
2019-05-03T02:30:38.953Z,1002.27
2019-05-03T02:31:38.934Z,1002.29
2019-05-03T02:32:38.923Z,1002.29
2019-05-03T02:33:38.912Z,1002.33
2019-05-03T02:34:38.903Z,1002.34
2019-05-03T02:35:38.887Z,1002.36
2019-05-03T02:36:38.914Z,1002.36
2019-05-03T02:37:38.866Z,1002.32
2019-05-03T02:38:38.854Z,1002.33
2019-05-03T02:39:38.843Z,1002.34
2019-05-03T02:40:38.832Z,1002.37
2019-05-03T02:41:38.822Z,1002.35
2019-05-03T02:42:38.846Z,1002.37
2019-05-03T02:43:38.811Z,1002.40
2019-05-03T02:44:38.786Z,1002.37
2019-05-03T02:45:38.778Z,1002.40
2019-05-03T02:46:38.767Z,1002.44
2019-05-03T02:47:38.754Z,1002.44
2019-05-03T02:48:38.765Z,1002.42
2019-05-03T02:49:38.731Z,1002.38
2019-05-03T02:50:38.720Z,1002.40
2019-05-03T02:51:38.709Z,1002.46
2019-05-03T02:52:38.699Z,1002.46
2019-05-03T02:53:38.689Z,1002.50
2019-05-03T02:54:38.682Z,1002.47
2019-05-03T02:55:38.663Z,1002.48
2019-05-03T02:56:38.654Z,1002.53
2019-05-03T02:57:38.643Z,1002.56
2019-05-03T02:58:38.631Z,1002.52
2019-05-03T02:59:38.619Z,1002.50
2019-05-03T03:00:38.620Z,1002.52
2019-05-03T03:01:38.596Z,1002.55
2019-05-03T03:02:38.585Z,1002.53
2019-05-03T03:03:38.574Z,1002.50
2019-05-03T03:04:38.562Z,1002.55
2019-05-03T03:05:38.551Z,1002.55
2019-05-03T03:06:38.549Z,1002.57
2019-05-03T03:07:38.530Z,1002.62
2019-05-03T03:08:38.516Z,1002.58
2019-05-03T03:09:38.511Z,1002.61
2019-05-03T03:10:38.495Z,1002.58
2019-05-03T03:11:38.484Z,1002.55
2019-05-03T03:12:38.501Z,1002.54
2019-05-03T03:13:38.466Z,1002.59
2019-05-03T03:14:38.456Z,1002.60
2019-05-03T03:15:38.437Z,1002.58
2019-05-03T03:16:38.427Z,1002.60
2019-05-03T03:17:38.423Z,1002.61
2019-05-03T03:18:38.411Z,1002.62
2019-05-03T03:19:38.393Z,1002.60
2019-05-03T03:20:38.382Z,1002.62
2019-05-03T03:21:38.370Z,1002.63
2019-05-03T03:22:38.359Z,1002.63
2019-05-03T03:23:38.346Z,1002.67
2019-05-03T03:24:38.356Z,1002.66
2019-05-03T03:25:38.332Z,1002.64
2019-05-03T03:26:42.729Z,1002.67
2019-05-03T03:27:39.301Z,1002.63
2019-05-03T03:28:38.291Z,1002.67
2019-05-03T03:29:38.281Z,1002.66
2019-05-03T03:30:38.796Z,1002.68
2019-05-03T03:31:38.379Z,1002.75
2019-05-03T03:32:39.145Z,1002.73
2019-05-03T03:33:40.339Z,1002.73
2019-05-03T03:34:39.276Z,1002.73
2019-05-03T03:35:38.810Z,1002.75
2019-05-03T03:36:54.460Z,1002.72
2019-05-03T03:37:39.194Z,1002.72
2019-05-03T03:38:38.180Z,1002.77
2019-05-03T03:39:38.168Z,1002.81
2019-05-03T03:40:38.160Z,1002.80
2019-05-03T03:41:38.149Z,1002.79
2019-05-03T03:42:38.139Z,1002.81
2019-05-03T03:43:38.144Z,1002.79
2019-05-03T03:44:38.110Z,1002.84
2019-05-03T03:45:38.099Z,1002.83
2019-05-03T03:46:38.088Z,1002.81
2019-05-03T03:47:38.077Z,1002.87
2019-05-03T03:48:38.098Z,1002.88
2019-05-03T03:49:38.073Z,1002.93
2019-05-03T03:50:38.044Z,1002.95
2019-05-03T03:51:38.034Z,1002.95
2019-05-03T03:52:38.022Z,1002.98
2019-05-03T03:53:38.011Z,1002.96
2019-05-03T03:54:38.020Z,1002.98
2019-05-03T03:55:37.986Z,1002.98
2019-05-03T03:56:54.568Z,1003.05
2019-05-03T03:57:38.965Z,1003.02
2019-05-03T03:58:37.955Z,1003.06
2019-05-03T03:59:37.942Z,1003.03
2019-05-03T04:00:37.958Z,1003.07
2019-05-03T04:01:37.920Z,1003.05
2019-05-03T04:02:37.907Z,1003.11
2019-05-03T04:03:37.896Z,1003.13
2019-05-03T04:04:37.885Z,1003.05
2019-05-03T04:05:37.874Z,1003.07
2019-05-03T04:06:37.871Z,1003.09
2019-05-03T04:07:37.851Z,1003.03
2019-05-03T04:08:37.841Z,1003.09
2019-05-03T04:09:37.829Z,1003.15
2019-05-03T04:10:37.847Z,1003.13
2019-05-03T04:11:37.821Z,1003.16
2019-05-03T04:12:37.802Z,1003.14
2019-05-03T04:13:37.793Z,1003.18
2019-05-03T04:14:37.774Z,1003.22
2019-05-03T04:15:37.765Z,1003.27
2019-05-03T04:16:37.754Z,1003.28
2019-05-03T04:17:37.743Z,1003.28
2019-05-03T04:18:37.736Z,1003.31
2019-05-03T04:19:37.715Z,1003.34
2019-05-03T04:20:37.716Z,1003.32
2019-05-03T04:21:37.693Z,1003.34
2019-05-03T04:22:37.684Z,1003.34
2019-05-03T04:23:37.671Z,1003.41
2019-05-03T04:24:37.695Z,1003.41
2019-05-03T04:25:37.649Z,1003.40
2019-05-03T04:26:37.638Z,1003.42
2019-05-03T04:27:37.626Z,1003.42
2019-05-03T04:28:37.615Z,1003.45
2019-05-03T04:29:37.613Z,1003.46
2019-05-03T04:30:37.628Z,1003.45
2019-05-03T04:31:37.586Z,1003.43
2019-05-03T04:32:37.571Z,1003.51
2019-05-03T04:33:37.561Z,1003.54
2019-05-03T04:34:37.550Z,1003.56
2019-05-03T04:35:37.545Z,1003.59
2019-05-03T04:36:37.533Z,1003.62
2019-05-03T04:37:37.514Z,1003.59
2019-05-03T04:38:37.504Z,1003.58
2019-05-03T04:39:37.491Z,1003.54
2019-05-03T04:40:37.480Z,1003.58
2019-05-03T04:41:37.470Z,1003.62
2019-05-03T04:42:37.465Z,1003.61
2019-05-03T04:43:37.446Z,1003.59
2019-05-03T04:44:37.436Z,1003.69
2019-05-03T04:45:37.422Z,1003.68
2019-05-03T04:46:37.412Z,1003.63
2019-05-03T04:47:37.400Z,1003.71
2019-05-03T04:48:37.397Z,1003.70
2019-05-03T04:49:37.380Z,1003.76
2019-05-03T04:50:37.368Z,1003.75
2019-05-03T04:51:37.356Z,1003.79
2019-05-03T04:52:37.344Z,1003.71
2019-05-03T04:53:37.341Z,1003.78
2019-05-03T04:54:37.333Z,1003.74
2019-05-03T04:55:37.319Z,1003.77
2019-05-03T04:56:37.299Z,1003.75
2019-05-03T04:57:45.089Z,1003.76
2019-05-03T04:58:38.278Z,1003.75
2019-05-03T04:59:37.276Z,1003.77
2019-05-03T05:00:37.273Z,1003.78
2019-05-03T05:01:37.244Z,1003.77
2019-05-03T05:02:37.235Z,1003.70
2019-05-03T05:03:37.222Z,1003.69
2019-05-03T05:04:37.209Z,1003.75
2019-05-03T05:05:37.197Z,1003.78
2019-05-03T05:06:37.218Z,1003.69
2019-05-03T05:07:37.175Z,1003.82
2019-05-03T05:08:37.164Z,1003.78
2019-05-03T05:09:37.155Z,1003.85
2019-05-03T05:10:37.141Z,1003.79
2019-05-03T05:11:37.130Z,1003.81
2019-05-03T05:12:37.147Z,1003.80
2019-05-03T05:13:37.109Z,1003.82
2019-05-03T05:14:37.102Z,1003.81
2019-05-03T05:15:37.085Z,1003.84
2019-05-03T05:16:39.671Z,1003.87
2019-05-03T05:17:37.064Z,1003.89
2019-05-03T05:18:37.059Z,1003.86
2019-05-03T05:19:37.047Z,1003.88
2019-05-03T05:20:37.028Z,1003.91
2019-05-03T05:21:37.017Z,1003.91
2019-05-03T05:22:37.006Z,1003.88
2019-05-03T05:23:36.998Z,1003.93
2019-05-03T05:24:36.990Z,1003.91
2019-05-03T05:25:36.974Z,1003.89
2019-05-03T05:26:36.962Z,1003.99
2019-05-03T05:27:48.297Z,1003.96
2019-05-03T05:28:37.937Z,1004.01
2019-05-03T05:29:36.927Z,1004.03
2019-05-03T05:30:36.939Z,1003.99
2019-05-03T05:31:36.904Z,1004.04
2019-05-03T05:32:36.894Z,1004.01
2019-05-03T05:33:36.882Z,1003.95
2019-05-03T05:34:36.871Z,1004.02
2019-05-03T05:35:36.864Z,1004.07
2019-05-03T05:36:36.882Z,1004.09
2019-05-03T05:37:36.837Z,1004.09
2019-05-03T05:38:36.826Z,1004.06
2019-05-03T05:39:36.815Z,1004.09
2019-05-03T05:40:36.806Z,1004.10
2019-05-03T05:41:36.793Z,1004.10
2019-05-03T05:42:36.814Z,1004.11
2019-05-03T05:43:36.770Z,1004.13
2019-05-03T05:44:36.758Z,1004.13
2019-05-03T05:45:36.748Z,1004.14
2019-05-03T05:46:36.744Z,1004.10
2019-05-03T05:47:36.724Z,1004.14
2019-05-03T05:48:36.721Z,1004.15
2019-05-03T05:49:36.702Z,1004.11
2019-05-03T05:50:36.690Z,1004.16
2019-05-03T05:51:36.679Z,1004.18
2019-05-03T05:52:36.668Z,1004.12
2019-05-03T05:53:36.656Z,1004.19
2019-05-03T05:54:36.651Z,1004.20
2019-05-03T05:55:36.635Z,1004.14
2019-05-03T05:56:36.621Z,1004.16
2019-05-03T05:57:36.612Z,1004.20
2019-05-03T05:58:36.602Z,1004.21
2019-05-03T05:59:36.590Z,1004.17
2019-05-03T06:00:36.586Z,1004.25
2019-05-03T06:01:36.574Z,1004.23
2019-05-03T06:02:36.556Z,1004.32
2019-05-03T06:03:36.543Z,1004.24
2019-05-03T06:04:36.533Z,1004.28
2019-05-03T06:05:36.522Z,1004.30
2019-05-03T06:06:36.520Z,1004.23
2019-05-03T06:07:36.500Z,1004.29
2019-05-03T06:08:36.496Z,1004.27
2019-05-03T06:09:36.476Z,1004.26
2019-05-03T06:10:36.464Z,1004.26
2019-05-03T06:11:36.454Z,1004.26
2019-05-03T06:12:36.449Z,1004.24
2019-05-03T06:13:36.431Z,1004.31
2019-05-03T06:14:36.422Z,1004.24
2019-05-03T06:15:36.410Z,1004.29
2019-05-03T06:16:36.397Z,1004.25
2019-05-03T06:17:36.385Z,1004.29
2019-05-03T06:18:36.397Z,1004.24
2019-05-03T06:19:36.363Z,1004.28
2019-05-03T06:20:36.352Z,1004.31
2019-05-03T06:21:36.340Z,1004.34
2019-05-03T06:22:36.331Z,1004.38
2019-05-03T06:23:36.325Z,1004.40
2019-05-03T06:24:36.824Z,1004.42
2019-05-03T06:25:36.297Z,1004.29
2019-05-03T06:26:36.284Z,1004.35
2019-05-03T06:27:36.273Z,1004.38
2019-05-03T06:28:36.266Z,1004.38
2019-05-03T06:29:36.250Z,1004.42
2019-05-03T06:30:36.250Z,1004.46
2019-05-03T06:31:36.228Z,1004.38
2019-05-03T06:32:36.217Z,1004.34
2019-05-03T06:33:36.206Z,1004.34
2019-05-03T06:34:36.194Z,1004.41
2019-05-03T06:35:36.189Z,1004.42
2019-05-03T06:36:36.179Z,1004.39
2019-05-03T06:37:36.160Z,1004.44
2019-05-03T06:38:36.149Z,1004.42
2019-05-03T06:39:36.141Z,1004.47
2019-05-03T06:40:36.126Z,1004.50
2019-05-03T06:41:36.115Z,1004.43
2019-05-03T06:42:36.134Z,1004.50
2019-05-03T06:43:39.536Z,1004.48
2019-05-03T06:44:37.083Z,1004.49
2019-05-03T06:45:36.070Z,1004.48
2019-05-03T06:46:36.058Z,1004.53
2019-05-03T06:47:40.243Z,1004.51
2019-05-03T06:48:37.069Z,1004.53
2019-05-03T06:49:39.185Z,1004.48
2019-05-03T06:50:37.013Z,1004.50
2019-05-03T06:51:39.953Z,1004.52
2019-05-03T06:52:36.995Z,1004.52
2019-05-03T06:53:35.979Z,1004.53
2019-05-03T06:54:37.849Z,1004.55
2019-05-03T06:55:39.949Z,1004.58
2019-05-03T06:56:36.944Z,1004.56
2019-05-03T06:57:40.166Z,1004.56
2019-05-03T06:58:36.922Z,1004.61
2019-05-03T06:59:35.988Z,1004.60
2019-05-03T07:00:35.928Z,1004.65
2019-05-03T07:01:35.890Z,1004.64
2019-05-03T07:02:35.879Z,1004.63
2019-05-03T07:03:35.869Z,1004.62
2019-05-03T07:04:35.860Z,1004.62
2019-05-03T07:05:35.846Z,1004.68
2019-05-03T07:06:40.331Z,1004.71
2019-05-03T07:07:35.822Z,1004.67
2019-05-03T07:08:35.810Z,1004.63
2019-05-03T07:09:35.799Z,1004.67
2019-05-03T07:10:35.793Z,1004.71
2019-05-03T07:11:35.777Z,1004.70
2019-05-03T07:12:35.798Z,1004.66
2019-05-03T07:13:35.755Z,1004.62
2019-05-03T07:14:35.746Z,1004.66
2019-05-03T07:15:35.732Z,1004.70
2019-05-03T07:16:35.720Z,1004.64
2019-05-03T07:17:35.710Z,1004.68
2019-05-03T07:18:35.728Z,1004.67
2019-05-03T07:19:35.697Z,1004.63
2019-05-03T07:20:35.676Z,1004.63
2019-05-03T07:21:35.665Z,1004.62
2019-05-03T07:22:35.653Z,1004.62
2019-05-03T07:23:35.641Z,1004.62
2019-05-03T07:24:40.646Z,1004.73
2019-05-03T07:25:36.618Z,1004.68
2019-05-03T07:26:35.615Z,1004.64
2019-05-03T07:27:35.596Z,1004.69
2019-05-03T07:28:46.395Z,1004.65
2019-05-03T07:29:36.699Z,1004.67
2019-05-03T07:30:37.070Z,1004.63
2019-05-03T07:31:35.552Z,1004.64
2019-05-03T07:32:35.541Z,1004.63
2019-05-03T07:33:35.528Z,1004.66
2019-05-03T07:34:35.518Z,1004.67
2019-05-03T07:35:35.548Z,1004.63
2019-05-03T07:36:35.724Z,1004.60
2019-05-03T07:37:35.484Z,1004.62
2019-05-03T07:38:35.474Z,1004.67
2019-05-03T07:39:35.464Z,1004.61
2019-05-03T07:40:35.450Z,1004.67
2019-05-03T07:41:35.699Z,1004.61
2019-05-03T07:42:35.427Z,1004.58
2019-05-03T07:43:36.069Z,1004.61
2019-05-03T07:44:35.408Z,1004.64
2019-05-03T07:45:35.528Z,1004.61
2019-05-03T07:46:35.382Z,1004.60
2019-05-03T07:47:35.410Z,1004.66
2019-05-03T07:48:35.499Z,1004.62
2019-05-03T07:49:35.792Z,1004.60
2019-05-03T07:50:35.726Z,1004.70
2019-05-03T07:51:35.326Z,1004.65
2019-05-03T07:52:35.315Z,1004.67
2019-05-03T07:53:35.341Z,1004.66
2019-05-03T07:54:35.296Z,1004.69
2019-05-03T07:55:35.329Z,1004.63
2019-05-03T07:56:35.628Z,1004.60
2019-05-03T07:57:35.777Z,1004.72
2019-05-03T07:58:35.331Z,1004.66
2019-05-03T07:59:35.676Z,1004.70
2019-05-03T08:00:35.225Z,1004.70
2019-05-03T08:01:35.697Z,1004.72
2019-05-03T08:02:35.979Z,1004.70
2019-05-03T08:03:35.192Z,1004.69
2019-05-03T08:04:35.853Z,1004.64
2019-05-03T08:05:35.205Z,1004.61
2019-05-03T08:06:35.157Z,1004.65
2019-05-03T08:07:35.666Z,1004.67
2019-05-03T08:08:35.523Z,1004.62
2019-05-03T08:09:35.226Z,1004.65
2019-05-03T08:10:35.113Z,1004.60
2019-05-03T08:11:35.298Z,1004.58
2019-05-03T08:12:35.095Z,1004.59
2019-05-03T08:13:35.720Z,1004.64
2019-05-03T08:14:35.695Z,1004.74
2019-05-03T08:15:35.056Z,1004.70
2019-05-03T08:16:35.384Z,1004.73
2019-05-03T08:17:35.067Z,1004.66
2019-05-03T08:18:35.560Z,1004.68
2019-05-03T08:19:35.930Z,1004.68
2019-05-03T08:20:35.154Z,1004.66
2019-05-03T08:21:37.689Z,1004.71
2019-05-03T08:22:34.979Z,1004.67
2019-05-03T08:23:35.390Z,1004.68
2019-05-03T08:24:34.961Z,1004.76
2019-05-03T08:25:35.440Z,1004.78
2019-05-03T08:26:35.195Z,1004.71
2019-05-03T08:27:35.440Z,1004.75
2019-05-03T08:28:34.909Z,1004.75
2019-05-03T08:29:35.348Z,1004.73
2019-05-03T08:30:35.452Z,1004.69
2019-05-03T08:31:35.418Z,1004.75
2019-05-03T08:32:35.380Z,1004.76
2019-05-03T08:33:35.543Z,1004.78
2019-05-03T08:34:35.040Z,1004.68
2019-05-03T08:35:35.569Z,1004.70
2019-05-03T08:36:35.006Z,1004.70
2019-05-03T08:37:34.993Z,1004.72
2019-05-03T08:38:34.795Z,1004.69
2019-05-03T08:39:35.604Z,1004.70
2019-05-03T08:40:35.076Z,1004.72
2019-05-03T08:41:35.244Z,1004.73
2019-05-03T08:42:35.194Z,1004.74
2019-05-03T08:43:35.774Z,1004.72
2019-05-03T08:44:35.403Z,1004.73
2019-05-03T08:45:34.842Z,1004.74
2019-05-03T08:46:35.558Z,1004.77
2019-05-03T08:47:34.728Z,1004.77
2019-05-03T08:48:35.426Z,1004.70
2019-05-03T08:49:34.936Z,1004.73
2019-05-03T08:50:34.888Z,1004.77
2019-05-03T08:51:35.244Z,1004.81
2019-05-03T08:52:34.859Z,1004.82
2019-05-03T08:53:35.848Z,1004.76
2019-05-03T08:54:34.911Z,1004.78
2019-05-03T08:55:35.214Z,1004.74
2019-05-03T08:56:34.922Z,1004.72
2019-05-03T08:57:35.427Z,1004.72
2019-05-03T08:58:34.899Z,1004.74
2019-05-03T08:59:35.782Z,1004.73
2019-05-03T09:00:35.283Z,1004.76
2019-05-03T09:01:36.534Z,1004.68
2019-05-03T09:02:34.678Z,1004.75
2019-05-03T09:03:37.950Z,1004.72
2019-05-03T09:04:38.136Z,1004.73
2019-05-03T09:05:36.082Z,1004.68
2019-05-03T09:06:35.460Z,1004.72
2019-05-03T09:07:35.544Z,1004.75
2019-05-03T09:08:35.393Z,1004.79
2019-05-03T09:09:34.922Z,1004.79
2019-05-03T09:10:35.208Z,1004.76
2019-05-03T09:11:36.802Z,1004.74
2019-05-03T09:12:34.413Z,1004.69
2019-05-03T09:13:34.404Z,1004.73
2019-05-03T09:14:42.510Z,1004.76
2019-05-03T09:15:35.378Z,1004.72
2019-05-03T09:16:35.537Z,1004.71
2019-05-03T09:17:35.377Z,1004.67
2019-05-03T09:18:35.091Z,1004.77
2019-05-03T09:19:34.800Z,1004.69
2019-05-03T09:20:35.628Z,1004.81
2019-05-03T09:21:34.804Z,1004.77
2019-05-03T09:22:34.828Z,1004.66
2019-05-03T09:23:35.724Z,1004.67
2019-05-03T09:24:35.155Z,1004.65
2019-05-03T09:25:35.501Z,1004.63
2019-05-03T09:26:34.805Z,1004.63
2019-05-03T09:27:34.468Z,1004.67
2019-05-03T09:28:34.892Z,1004.59
2019-05-03T09:29:42.486Z,1004.61
2019-05-03T09:30:35.790Z,1004.73
2019-05-03T09:31:35.268Z,1004.64
2019-05-03T09:32:35.035Z,1004.55
2019-05-03T09:33:35.662Z,1004.65
2019-05-03T09:34:35.123Z,1004.58
2019-05-03T09:35:35.901Z,1004.65
2019-05-03T09:36:34.551Z,1004.63
2019-05-03T09:37:35.417Z,1004.66
2019-05-03T09:38:35.009Z,1004.62
2019-05-03T09:39:35.510Z,1004.64
2019-05-03T09:40:35.216Z,1004.66
2019-05-03T09:41:34.745Z,1004.63
2019-05-03T09:42:35.220Z,1004.61
2019-05-03T09:43:35.710Z,1004.58
2019-05-03T09:44:35.030Z,1004.61
2019-05-03T09:45:35.264Z,1004.62
2019-05-03T09:46:35.445Z,1004.63
2019-05-03T09:47:35.338Z,1004.61
2019-05-03T09:48:34.704Z,1004.65
2019-05-03T09:49:34.752Z,1004.64
2019-05-03T09:50:35.890Z,1004.70
2019-05-03T09:51:35.041Z,1004.69
2019-05-03T09:52:35.547Z,1004.61
2019-05-03T09:53:35.138Z,1004.65
2019-05-03T09:54:34.745Z,1004.67
2019-05-03T09:55:35.459Z,1004.64
2019-05-03T09:56:34.632Z,1004.66
2019-05-03T09:57:34.743Z,1004.66
2019-05-03T09:58:36.421Z,1004.68
2019-05-03T09:59:34.998Z,1004.75
2019-05-03T10:00:33.873Z,1004.71
2019-05-03T10:01:34.691Z,1004.75
2019-05-03T10:02:35.313Z,1004.67
2019-05-03T10:03:33.840Z,1004.68
2019-05-03T10:04:36.406Z,1004.65
2019-05-03T10:05:35.140Z,1004.59
2019-05-03T10:06:35.859Z,1004.59
2019-05-03T10:07:35.093Z,1004.61
2019-05-03T10:08:35.739Z,1004.66
2019-05-03T10:09:35.424Z,1004.64
2019-05-03T10:10:35.668Z,1004.66
2019-05-03T10:11:35.152Z,1004.68
2019-05-03T10:12:33.739Z,1004.75
2019-05-03T10:13:35.407Z,1004.67
2019-05-03T10:14:33.715Z,1004.68
2019-05-03T10:15:33.718Z,1004.66
2019-05-03T10:16:35.081Z,1004.71
2019-05-03T10:17:35.153Z,1004.65
2019-05-03T10:18:34.924Z,1004.66
2019-05-03T10:19:39.653Z,1004.71
2019-05-03T10:20:34.915Z,1004.69
2019-05-03T10:21:35.543Z,1004.72
2019-05-03T10:22:34.889Z,1004.75
2019-05-03T10:23:35.573Z,1004.79
2019-05-03T10:24:35.102Z,1004.79
2019-05-03T10:25:35.722Z,1004.80
2019-05-03T10:26:35.483Z,1004.83
2019-05-03T10:27:34.711Z,1004.79
2019-05-03T10:28:33.560Z,1004.71
2019-05-03T10:29:33.880Z,1004.76
2019-05-03T10:30:35.462Z,1004.72
2019-05-03T10:31:35.348Z,1004.76
2019-05-03T10:32:35.355Z,1004.76
2019-05-03T10:33:35.365Z,1004.74
2019-05-03T10:34:35.316Z,1004.66
2019-05-03T10:35:35.335Z,1004.70
2019-05-03T10:36:35.502Z,1004.69
2019-05-03T10:37:35.599Z,1004.67
2019-05-03T10:38:33.446Z,1004.66
2019-05-03T10:39:33.442Z,1004.69
2019-05-03T10:40:35.588Z,1004.65
2019-05-03T10:41:34.789Z,1004.72
2019-05-03T10:42:35.327Z,1004.63
2019-05-03T10:43:35.330Z,1004.66
2019-05-03T10:44:35.824Z,1004.74
2019-05-03T10:45:35.369Z,1004.72
2019-05-03T10:46:34.470Z,1004.81
2019-05-03T10:47:34.910Z,1004.69
2019-05-03T10:48:35.348Z,1004.83
2019-05-03T10:49:35.196Z,1004.82
2019-05-03T10:50:34.775Z,1004.73
2019-05-03T10:51:33.298Z,1004.66
2019-05-03T10:52:34.907Z,1004.69
2019-05-03T10:53:34.631Z,1004.59
2019-05-03T10:54:35.596Z,1004.64
2019-05-03T10:55:35.619Z,1004.75
2019-05-03T10:56:35.623Z,1004.65
2019-05-03T10:57:35.429Z,1004.65
2019-05-03T10:58:33.220Z,1004.59
2019-05-03T10:59:35.393Z,1004.61
2019-05-03T11:00:46.349Z,1004.61
2019-05-03T11:01:35.883Z,1004.55
2019-05-03T11:02:35.215Z,1004.87
2019-05-03T11:03:34.377Z,1004.68
2019-05-03T11:04:35.475Z,1004.64
2019-05-03T11:05:34.786Z,1004.69
2019-05-03T11:06:35.365Z,1004.65
2019-05-03T11:07:34.569Z,1004.72
2019-05-03T11:08:33.108Z,1004.63
2019-05-03T11:09:48.046Z,1004.70
2019-05-03T11:10:34.111Z,1004.72
2019-05-03T11:11:35.029Z,1004.70
2019-05-03T11:12:34.747Z,1004.70
2019-05-03T11:13:34.877Z,1004.73
2019-05-03T11:14:35.049Z,1004.58
2019-05-03T11:15:34.950Z,1004.71
2019-05-03T11:16:35.108Z,1004.59
2019-05-03T11:17:34.746Z,1004.56
2019-05-03T11:18:34.562Z,1004.61
2019-05-03T11:19:34.772Z,1004.55
2019-05-03T11:20:34.600Z,1004.59
2019-05-03T11:21:34.770Z,1004.57
2019-05-03T11:22:34.940Z,1004.63
2019-05-03T11:23:34.662Z,1004.70
2019-05-03T11:24:34.667Z,1004.66
2019-05-03T11:25:34.454Z,1004.66
2019-05-03T11:26:34.948Z,1004.67
2019-05-03T11:27:32.892Z,1004.69
2019-05-03T11:28:32.912Z,1004.68
2019-05-03T11:29:32.869Z,1004.65
2019-05-03T11:30:32.859Z,1004.68
2019-05-03T11:31:32.848Z,1004.62
2019-05-03T11:32:35.137Z,1004.62
2019-05-03T11:33:32.833Z,1004.60
2019-05-03T11:34:32.822Z,1004.62
2019-05-03T11:35:32.804Z,1004.61
2019-05-03T11:36:34.765Z,1004.60
2019-05-03T11:37:34.565Z,1004.57
2019-05-03T11:38:34.794Z,1004.56
2019-05-03T11:39:34.433Z,1004.59
2019-05-03T11:40:34.607Z,1004.59
2019-05-03T11:41:33.022Z,1004.59
2019-05-03T11:42:32.724Z,1004.58
2019-05-03T11:43:34.878Z,1004.56
2019-05-03T11:44:32.701Z,1004.60
2019-05-03T11:45:32.691Z,1004.61
2019-05-03T11:46:32.699Z,1004.57
2019-05-03T11:47:34.672Z,1004.58
2019-05-03T11:48:34.748Z,1004.64
2019-05-03T11:49:34.725Z,1004.73
2019-05-03T11:50:34.630Z,1004.62
2019-05-03T11:51:32.624Z,1004.55
2019-05-03T11:52:35.338Z,1004.56
2019-05-03T11:53:32.600Z,1004.54
2019-05-03T11:54:32.590Z,1004.59
2019-05-03T11:55:32.578Z,1004.51
2019-05-03T11:56:32.566Z,1004.50
2019-05-03T11:57:32.553Z,1004.55
2019-05-03T11:58:34.249Z,1004.53
2019-05-03T11:59:34.409Z,1004.50
2019-05-03T12:00:32.519Z,1004.47
2019-05-03T12:01:32.511Z,1004.44
2019-05-03T12:02:32.498Z,1004.54
2019-05-03T12:03:32.487Z,1004.48
2019-05-03T12:04:32.482Z,1004.45
2019-05-03T12:05:32.463Z,1004.41